Аэропорт: Сокол. Магадан

ICAO: UHMM

METAR:
2021-10-23 01:00:00
UHMM 230100Z 02001MPS 9999 NSC M04/M11 Q1002 R10/410065 NOSIG RMK QFE737 R28/12002MPS 070V170
METAR:
2021-10-22 22:58:00
TAF UHMM 222258Z 2300/2406 08003G08MPS 9999 SCT040 OVC070 TEMPO 2300/2310 5000 -SHSN BKN025CB FM231000 02003G08MPS 9999 -SHSN BKN030CB OVC070 TEMPO 2310/2406 3100 -SHSN SCT011 OVC020CB